Time;durP1;ratioP1;P1;durP2;ratioP2;P2;SDS_P1;SDS_P2;PMS_P1;PMS_P2;Temp;Humidity;BMP_temperature;BMP_pressure;BME280_temperature;BME280_humidity;BME280_pressure;Samples;Min_cycle;Max_cycle;Signal;HPM_P1;HPM_P2
2022/06/18 00:02:17;;;;;;;101.78;29.40;;;;;;;;;;6277743;22;20086;-71
2022/06/18 00:04:43;;;;;;;98.95;28.27;;;;;;;;;;6277386;22;20416;-71
2022/06/18 00:07:14;;;;;;;98.57;29.08;;;;;;;;;;6250757;22;20053;-70
2022/06/18 00:09:41;;;;;;;95.20;27.70;;;;;;;;;;6277415;22;20030;-70
2022/06/18 00:14:56;;;;;;;103.53;28.67;;;;;;;;;;6277819;22;20451;-71
2022/06/18 00:17:21;;;;;;;103.57;28.98;;;;;;;;;;6277179;22;20007;-71
2022/06/18 00:19:47;;;;;;;91.32;27.85;;;;;;;;;;6277754;22;20000;-71
2022/06/18 00:22:13;;;;;;;109.45;29.08;;;;;;;;;;6277467;22;19996;-71
2022/06/18 00:24:39;;;;;;;106.13;29.80;;;;;;;;;;6277657;22;19999;-71
2022/06/18 00:27:04;;;;;;;99.00;28.20;;;;;;;;;;6277881;22;20038;-71
2022/06/18 00:29:29;;;;;;;106.55;30.05;;;;;;;;;;6277119;22;20008;-71
2022/06/18 00:31:55;;;;;;;110.72;29.00;;;;;;;;;;6277125;22;20031;-71
2022/06/18 00:34:20;;;;;;;104.07;29.17;;;;;;;;;;6277701;22;20002;-71
2022/06/18 00:36:45;;;;;;;98.60;27.13;;;;;;;;;;6277461;22;19992;-71
2022/06/18 00:39:12;;;;;;;100.85;28.90;;;;;;;;;;6277140;22;20011;-71
2022/06/18 00:41:40;;;;;;;91.07;27.85;;;;;;;;;;6277543;22;20070;-71
2022/06/18 00:44:21;;;;;;;98.40;29.75;;;;;;;;;;6277769;22;19999;-71
2022/06/18 00:46:54;;;;;;;103.30;29.77;;;;;;;;;;6276912;22;20476;-71
2022/06/18 00:49:22;;;;;;;107.97;29.63;;;;;;;;;;6277217;22;20003;-71
2022/06/18 00:51:49;;;;;;;113.13;29.48;;;;;;;;;;6277527;22;20424;-71
2022/06/18 00:54:14;;;;;;;103.43;28.17;;;;;;;;;;6277357;22;19995;-71
2022/06/18 00:56:46;;;;;;;98.40;28.27;;;;;;;;;;6277351;22;20065;-71
2022/06/18 00:59:18;;;;;;;99.97;27.83;;;;;;;;;;6277010;22;20489;-70
2022/06/18 01:01:45;;;;;;;101.38;28.55;;;;;;;;;;6277152;22;19996;-70
2022/06/18 01:04:21;;;;;;;118.40;29.75;;;;;;;;;;6277342;22;20004;-71
2022/06/18 01:06:46;;;;;;;120.20;30.08;;;;;;;;;;6277131;22;20004;-71
2022/06/18 01:09:13;;;;;;;111.57;30.08;;;;;;;;;;6277133;22;20065;-71
2022/06/18 01:11:39;;;;;;;113.07;31.10;;;;;;;;;;6277172;22;19991;-71
2022/06/18 01:14:07;;;;;;;126.20;33.65;;;;;;;;;;6277527;22;20003;-71
2022/06/18 01:16:33;;;;;;;134.60;31.70;;;;;;;;;;6277082;22;20510;-71
2022/06/18 01:18:58;;;;;;;118.35;31.38;;;;;;;;;;6277075;22;19992;-70
2022/06/18 01:21:35;;;;;;;123.10;35.13;;;;;;;;;;6276686;22;20004;-71
2022/06/18 01:24:10;;;;;;;133.32;34.90;;;;;;;;;;6276749;22;20482;-71
2022/06/18 01:26:36;;;;;;;118.65;32.40;;;;;;;;;;6277194;22;20057;-71
2022/06/18 01:29:01;;;;;;;108.70;30.35;;;;;;;;;;6276760;22;20424;-71
2022/06/18 01:31:26;;;;;;;105.93;29.02;;;;;;;;;;6277021;22;19992;-71
2022/06/18 01:33:52;;;;;;;102.55;28.60;;;;;;;;;;6277106;22;20003;-71
2022/06/18 01:36:17;;;;;;;125.55;31.08;;;;;;;;;;6276993;22;20078;-71
2022/06/18 01:38:44;;;;;;;109.97;29.15;;;;;;;;;;6276957;22;20019;-71
2022/06/18 01:43:57;;;;;;;102.03;27.70;;;;;;;;;;6276476;22;20346;-71
2022/06/18 01:46:23;;;;;;;112.07;30.90;;;;;;;;;;6276822;22;20420;-71
2022/06/18 01:48:49;;;;;;;112.47;30.30;;;;;;;;;;6276422;22;20019;-71
2022/06/18 01:51:21;;;;;;;108.93;28.83;;;;;;;;;;6277024;22;19998;-71
2022/06/18 01:53:49;;;;;;;107.55;27.80;;;;;;;;;;6276737;22;19999;-71
2022/06/18 01:56:22;;;;;;;104.95;29.25;;;;;;;;;;6276524;22;20078;-71
2022/06/18 01:59:06;;;;;;;115.82;29.48;;;;;;;;;;6276597;22;20003;-71
2022/06/18 02:01:33;;;;;;;119.43;26.92;;;;;;;;;;6276881;22;20206;-71
2022/06/18 02:04:00;;;;;;;104.10;28.63;;;;;;;;;;6276616;22;20007;-71
2022/06/18 02:06:27;;;;;;;126.00;28.58;;;;;;;;;;6276785;22;20004;-71
2022/06/18 02:08:53;;;;;;;100.85;27.40;;;;;;;;;;6276387;22;20004;-71
2022/06/18 02:11:19;;;;;;;104.45;29.13;;;;;;;;;;6276872;22;20007;-71
2022/06/18 02:13:49;;;;;;;112.05;29.75;;;;;;;;;;6276467;22;20031;-71
2022/06/18 02:16:20;;;;;;;122.68;29.08;;;;;;;;;;6276821;22;20042;-71
2022/06/18 02:18:47;;;;;;;104.55;27.88;;;;;;;;;;6276464;22;20004;-71
2022/06/18 02:21:13;;;;;;;110.18;30.15;;;;;;;;;;6276790;22;20091;-71
2022/06/18 02:23:39;;;;;;;111.90;29.08;;;;;;;;;;6249330;22;19999;-71
2022/06/18 02:26:06;;;;;;;116.65;30.10;;;;;;;;;;6276632;22;20450;-71
2022/06/18 02:28:37;;;;;;;122.82;29.15;;;;;;;;;;6276125;22;20463;-71
2022/06/18 02:31:03;;;;;;;136.23;29.88;;;;;;;;;;6276552;22;20070;-71
2022/06/18 02:33:39;;;;;;;99.38;28.40;;;;;;;;;;6249441;22;20406;-71
2022/06/18 02:36:19;;;;;;;105.53;29.42;;;;;;;;;;6276609;22;20006;-71
2022/06/18 02:38:45;;;;;;;107.82;29.02;;;;;;;;;;6276183;22;20015;-71
2022/06/18 02:41:11;;;;;;;114.40;30.83;;;;;;;;;;6276548;22;20007;-71
2022/06/18 02:43:37;;;;;;;117.13;29.42;;;;;;;;;;6276230;22;20308;-71
2022/06/18 02:46:02;;;;;;;114.32;30.00;;;;;;;;;;6276100;22;20435;-71
2022/06/18 02:48:29;;;;;;;102.82;28.45;;;;;;;;;;6276328;22;20019;-71
2022/06/18 02:50:56;;;;;;;98.82;28.73;;;;;;;;;;6276426;22;20023;-71
2022/06/18 02:53:21;;;;;;;98.40;27.92;;;;;;;;;;6276584;22;20010;-71
2022/06/18 02:55:48;;;;;;;93.93;29.10;;;;;;;;;;6276237;22;20023;-71
2022/06/18 02:58:18;;;;;;;94.95;28.63;;;;;;;;;;6276525;22;19999;-71
2022/06/18 03:00:46;;;;;;;91.05;26.17;;;;;;;;;;6276570;22;20003;-71
2022/06/18 03:03:12;;;;;;;89.03;26.55;;;;;;;;;;6276341;22;20447;-71
2022/06/18 03:05:38;;;;;;;85.82;26.95;;;;;;;;;;6276079;22;20065;-71
2022/06/18 03:08:03;;;;;;;103.03;26.60;;;;;;;;;;6276805;22;20484;-71
2022/06/18 03:13:12;;;;;;;86.10;25.90;;;;;;;;;;6278127;22;20010;-71
2022/06/18 03:15:38;;;;;;;108.43;27.75;;;;;;;;;;6277980;22;20004;-71
2022/06/18 03:18:03;;;;;;;93.00;27.15;;;;;;;;;;6278717;22;19996;-71
2022/06/18 03:20:41;;;;;;;99.40;25.95;;;;;;;;;;6278173;22;20053;-71
2022/06/18 03:23:10;;;;;;;90.00;27.25;;;;;;;;;;6278170;22;20328;-71
2022/06/18 03:25:35;;;;;;;88.43;25.27;;;;;;;;;;6277869;22;19999;-71
2022/06/18 03:28:00;;;;;;;83.32;24.38;;;;;;;;;;6278425;22;20439;-71
2022/06/18 03:30:26;;;;;;;89.82;24.58;;;;;;;;;;6278095;22;20046;-71
2022/06/18 03:32:51;;;;;;;136.82;28.33;;;;;;;;;;6278138;22;19999;-71
2022/06/18 03:35:16;;;;;;;118.00;27.55;;;;;;;;;;6278264;22;20042;-71
2022/06/18 03:37:41;;;;;;;107.97;26.13;;;;;;;;;;6278063;22;20390;-71
2022/06/18 03:40:09;;;;;;;120.30;26.70;;;;;;;;;;6278245;22;20014;-71
2022/06/18 03:42:34;;;;;;;101.28;26.92;;;;;;;;;;6278212;22;20061;-71
2022/06/18 03:45:00;;;;;;;198.73;34.35;;;;;;;;;;6277641;22;20004;-71
2022/06/18 03:47:25;;;;;;;224.82;32.58;;;;;;;;;;6277826;22;19991;-71
2022/06/18 03:49:50;;;;;;;165.68;28.30;;;;;;;;;;6277433;22;20007;-71
2022/06/18 03:52:15;;;;;;;121.40;27.13;;;;;;;;;;6278363;22;19995;-71
2022/06/18 03:54:40;;;;;;;134.82;28.83;;;;;;;;;;6277409;22;20135;-71
2022/06/18 03:57:06;;;;;;;154.80;30.23;;;;;;;;;;6278127;22;20003;-71
2022/06/18 03:59:31;;;;;;;154.77;30.35;;;;;;;;;;6277732;22;20442;-71
2022/06/18 04:01:57;;;;;;;114.90;27.60;;;;;;;;;;6277987;22;20003;-71
2022/06/18 04:04:22;;;;;;;137.63;28.20;;;;;;;;;;6250741;22;20483;-71
2022/06/18 04:06:47;;;;;;;211.65;35.60;;;;;;;;;;6278316;22;20485;-71
2022/06/18 04:09:12;;;;;;;177.35;30.73;;;;;;;;;;6277394;22;20014;-71
2022/06/18 04:11:38;;;;;;;202.25;31.48;;;;;;;;;;6278207;22;20412;-71
2022/06/18 04:14:04;;;;;;;162.43;29.90;;;;;;;;;;6277745;22;20004;-71
2022/06/18 04:16:29;;;;;;;140.77;28.77;;;;;;;;;;6277560;22;20371;-70
2022/06/18 04:18:54;;;;;;;139.57;28.55;;;;;;;;;;6277856;22;20086;-71
2022/06/18 04:21:20;;;;;;;150.43;28.35;;;;;;;;;;6277117;22;20049;-71
2022/06/18 04:23:45;;;;;;;185.98;29.98;;;;;;;;;;6277396;22;19999;-71
2022/06/18 04:26:11;;;;;;;174.90;30.80;;;;;;;;;;6277397;22;20011;-71
2022/06/18 04:28:37;;;;;;;156.40;29.25;;;;;;;;;;6277528;22;20019;-71
2022/06/18 04:31:02;;;;;;;180.63;31.02;;;;;;;;;;6276913;22;20443;-71
2022/06/18 04:33:27;;;;;;;150.00;29.92;;;;;;;;;;6250672;22;20008;-71
2022/06/18 04:35:56;;;;;;;142.73;30.83;;;;;;;;;;6277451;22;20420;-71
2022/06/18 04:38:21;;;;;;;129.07;28.50;;;;;;;;;;6277563;22;20011;-71
2022/06/18 04:40:47;;;;;;;150.55;28.55;;;;;;;;;;6277519;22;20018;-71
2022/06/18 04:43:12;;;;;;;111.82;27.23;;;;;;;;;;6277563;22;20000;-71
2022/06/18 04:45:38;;;;;;;136.35;28.40;;;;;;;;;;6277372;22;20063;-71
2022/06/18 04:48:04;;;;;;;126.80;28.63;;;;;;;;;;6277523;22;20012;-71
2022/06/18 04:50:30;;;;;;;120.25;28.73;;;;;;;;;;6277325;22;20004;-71
2022/06/18 04:52:56;;;;;;;128.25;29.17;;;;;;;;;;6277629;22;19998;-71
2022/06/18 04:55:21;;;;;;;127.72;28.35;;;;;;;;;;6276745;22;20016;-71
2022/06/18 04:57:46;;;;;;;118.78;27.48;;;;;;;;;;6277466;22;20008;-71
2022/06/18 05:00:12;;;;;;;122.70;28.67;;;;;;;;;;6277424;22;20362;-71
2022/06/18 05:02:37;;;;;;;117.10;29.75;;;;;;;;;;6277363;22;20014;-71
2022/06/18 05:05:04;;;;;;;103.97;27.88;;;;;;;;;;6276834;22;20301;-71
2022/06/18 05:07:29;;;;;;;103.25;28.58;;;;;;;;;;6277019;22;19996;-71
2022/06/18 05:09:54;;;;;;;94.78;27.80;;;;;;;;;;6277190;22;20324;-71
2022/06/18 05:12:20;;;;;;;84.53;25.35;;;;;;;;;;6277381;22;19996;-71
2022/06/18 05:14:45;;;;;;;98.90;26.55;;;;;;;;;;6276639;22;20374;-71
2022/06/18 05:17:24;;;;;;;89.40;28.85;;;;;;;;;;6277332;22;20008;-71
2022/06/18 05:19:50;;;;;;;82.18;24.88;;;;;;;;;;6277069;22;20006;-71
2022/06/18 05:22:15;;;;;;;79.72;23.98;;;;;;;;;;6277025;22;20078;-71
2022/06/18 05:24:41;;;;;;;92.20;25.52;;;;;;;;;;6276934;22;20304;-71
2022/06/18 05:27:06;;;;;;;76.97;23.95;;;;;;;;;;6277320;22;20479;-71
2022/06/18 05:29:32;;;;;;;72.43;24.48;;;;;;;;;;6276571;22;20015;-71
2022/06/18 05:31:57;;;;;;;58.53;20.70;;;;;;;;;;6276695;22;20312;-71
2022/06/18 05:34:22;;;;;;;60.75;22.08;;;;;;;;;;6276922;22;19996;-71
2022/06/18 05:36:47;;;;;;;57.22;19.80;;;;;;;;;;6276395;22;20081;-71
2022/06/18 05:39:17;;;;;;;63.42;21.73;;;;;;;;;;6277230;22;20018;-71
2022/06/18 05:41:43;;;;;;;46.63;19.13;;;;;;;;;;6276563;22;20008;-71
2022/06/18 05:44:08;;;;;;;41.58;19.27;;;;;;;;;;6277070;22;20079;-71
2022/06/18 05:46:33;;;;;;;47.97;19.38;;;;;;;;;;6277017;22;20075;-71
2022/06/18 05:48:58;;;;;;;48.22;18.85;;;;;;;;;;6276840;22;20015;-71
2022/06/18 05:51:24;;;;;;;46.58;18.98;;;;;;;;;;6276403;22;20015;-71
2022/06/18 05:53:49;;;;;;;44.28;18.40;;;;;;;;;;6276822;22;20027;-71
2022/06/18 05:56:15;;;;;;;44.78;18.05;;;;;;;;;;6276657;22;20004;-71
2022/06/18 05:58:40;;;;;;;42.63;17.10;;;;;;;;;;6276791;22;20008;-71
2022/06/18 06:01:05;;;;;;;34.63;14.45;;;;;;;;;;6276788;22;20049;-71
2022/06/18 06:03:31;;;;;;;30.70;13.13;;;;;;;;;;6276889;22;20003;-71
2022/06/18 06:05:56;;;;;;;27.05;10.98;;;;;;;;;;6276396;22;20003;-71
2022/06/18 06:08:21;;;;;;;25.20;9.40;;;;;;;;;;6276345;22;20057;-71
2022/06/18 06:13:30;;;;;;;15.27;7.13;;;;;;;;;;6276391;22;20073;-71
2022/06/18 06:15:56;;;;;;;20.27;7.63;;;;;;;;;;6275993;22;20343;-71
2022/06/18 06:18:22;;;;;;;16.75;5.75;;;;;;;;;;6276299;22;20012;-71
2022/06/18 06:20:49;;;;;;;12.48;5.63;;;;;;;;;;6276678;22;19996;-71
2022/06/18 06:23:14;;;;;;;13.30;6.15;;;;;;;;;;6276999;22;20129;-71
2022/06/18 06:25:40;;;;;;;13.10;6.25;;;;;;;;;;6275858;22;20039;-71
2022/06/18 06:28:09;;;;;;;12.27;5.75;;;;;;;;;;6276817;22;20057;-71
2022/06/18 06:30:34;;;;;;;17.98;5.70;;;;;;;;;;6249191;22;20319;-70
2022/06/18 06:32:59;;;;;;;13.88;5.88;;;;;;;;;;6276489;22;20091;-71
2022/06/18 06:35:25;;;;;;;15.38;5.47;;;;;;;;;;6276468;22;19995;-71
2022/06/18 06:37:50;;;;;;;15.45;4.90;;;;;;;;;;6275985;22;20423;-71
2022/06/18 06:40:15;;;;;;;13.50;5.30;;;;;;;;;;6276429;22;20428;-71
2022/06/18 06:42:45;;;;;;;13.65;5.38;;;;;;;;;;6277206;22;19992;-70
2022/06/18 06:45:12;;;;;;;15.80;4.65;;;;;;;;;;6279703;22;20011;-70
2022/06/18 06:47:37;;;;;;;12.90;4.75;;;;;;;;;;6279787;22;20082;-70
2022/06/18 06:50:03;;;;;;;11.95;4.90;;;;;;;;;;6279766;22;20057;-70
2022/06/18 06:52:29;;;;;;;9.50;4.28;;;;;;;;;;6279577;22;20000;-71
2022/06/18 06:57:21;;;;;;;7.28;4.32;;;;;;;;;;6279757;22;20014;-71
2022/06/18 06:57:41;;;;;;;8.90;4.38;;;;;;;;;;6279536;22;20297;-71
2022/06/18 07:00:07;;;;;;;12.68;4.82;;;;;;;;;;6279571;22;20008;-70
2022/06/18 07:02:32;;;;;;;10.43;5.20;;;;;;;;;;6279694;22;19999;-71
2022/06/18 07:04:57;;;;;;;9.10;4.30;;;;;;;;;;6279815;22;20003;-70
2022/06/18 07:07:22;;;;;;;9.27;4.45;;;;;;;;;;6279484;22;20034;-71
2022/06/18 07:09:47;;;;;;;9.40;4.88;;;;;;;;;;6280121;22;19996;-70
2022/06/18 07:12:13;;;;;;;10.93;4.50;;;;;;;;;;6279821;22;19992;-71
2022/06/18 07:14:38;;;;;;;11.98;4.55;;;;;;;;;;6279201;22;20026;-71
2022/06/18 07:17:03;;;;;;;9.75;4.45;;;;;;;;;;6278826;22;19996;-70
2022/06/18 07:19:28;;;;;;;10.55;4.88;;;;;;;;;;6279738;22;20117;-70
2022/06/18 07:21:54;;;;;;;10.60;4.97;;;;;;;;;;6279532;22;20012;-70
2022/06/18 07:24:19;;;;;;;10.32;4.30;;;;;;;;;;6279493;22;19996;-71
2022/06/18 07:26:45;;;;;;;10.82;4.45;;;;;;;;;;6267628;22;19991;-71
2022/06/18 07:29:10;;;;;;;10.60;4.43;;;;;;;;;;6270196;22;20495;-71
2022/06/18 07:31:35;;;;;;;16.48;4.57;;;;;;;;;;6277696;22;20058;-71
2022/06/18 07:34:03;;;;;;;10.52;4.03;;;;;;;;;;6279336;22;20030;-71
2022/06/18 07:36:30;;;;;;;14.00;4.10;;;;;;;;;;6277628;22;20438;-71
2022/06/18 07:38:56;;;;;;;13.02;4.32;;;;;;;;;;6279417;22;20015;-71
2022/06/18 07:41:24;;;;;;;7.90;3.67;;;;;;;;;;6279560;22;19996;-71
2022/06/18 07:43:52;;;;;;;12.20;3.88;;;;;;;;;;6279060;22;20082;-71
2022/06/18 07:46:18;;;;;;;7.82;3.50;;;;;;;;;;6278595;22;20000;-70
2022/06/18 07:48:43;;;;;;;7.93;2.88;;;;;;;;;;6279563;22;20058;-71
2022/06/18 07:51:09;;;;;;;7.00;2.42;;;;;;;;;;6278998;22;20011;-70
2022/06/18 07:53:34;;;;;;;8.70;2.42;;;;;;;;;;6278665;22;19991;-71
2022/06/18 07:56:00;;;;;;;11.45;2.40;;;;;;;;;;6276953;22;20408;-70
2022/06/18 07:58:28;;;;;;;9.85;2.35;;;;;;;;;;6277370;22;20004;-71
2022/06/18 08:00:54;;;;;;;8.82;2.33;;;;;;;;;;6277916;22;19998;-71
2022/06/18 08:03:20;;;;;;;5.68;2.03;;;;;;;;;;6277974;22;19996;-71
2022/06/18 08:05:46;;;;;;;5.45;1.98;;;;;;;;;;6277320;22;20439;-70
2022/06/18 08:08:12;;;;;;;8.05;2.40;;;;;;;;;;6278126;22;20043;-70
2022/06/18 08:10:39;;;;;;;6.22;1.80;;;;;;;;;;6277256;22;20324;-71
2022/06/18 08:13:04;;;;;;;6.47;2.00;;;;;;;;;;6277797;22;20061;-70
2022/06/18 08:15:30;;;;;;;8.02;2.15;;;;;;;;;;6277754;22;20412;-71
2022/06/18 08:17:55;;;;;;;10.13;1.90;;;;;;;;;;6277498;22;20462;-70
2022/06/18 08:20:21;;;;;;;5.47;1.88;;;;;;;;;;6277903;22;20324;-71
2022/06/18 08:22:48;;;;;;;7.75;2.13;;;;;;;;;;6277723;22;20062;-70
2022/06/18 08:25:14;;;;;;;4.80;1.67;;;;;;;;;;6277844;22;20022;-71
2022/06/18 08:27:41;;;;;;;5.45;1.65;;;;;;;;;;6276961;22;20007;-70
2022/06/18 08:30:07;;;;;;;5.90;1.70;;;;;;;;;;6277773;22;19992;-71
2022/06/18 08:32:32;;;;;;;6.70;2.13;;;;;;;;;;6277606;22;20438;-71
2022/06/18 08:34:57;;;;;;;9.02;1.77;;;;;;;;;;6277389;22;20004;-71
2022/06/18 08:37:22;;;;;;;7.53;2.25;;;;;;;;;;6277268;22;20463;-71
2022/06/18 08:39:48;;;;;;;7.57;2.22;;;;;;;;;;6277302;22;20070;-71
2022/06/18 08:42:19;;;;;;;10.27;1.77;;;;;;;;;;6277469;22;20027;-70
2022/06/18 08:44:44;;;;;;;9.82;2.20;;;;;;;;;;6250428;22;20335;-71
2022/06/18 08:47:15;;;;;;;9.60;2.22;;;;;;;;;;6277208;22;20083;-70
2022/06/18 08:49:41;;;;;;;10.07;2.55;;;;;;;;;;6276055;22;20016;-71
2022/06/18 08:52:06;;;;;;;7.15;2.38;;;;;;;;;;6276478;22;20422;-71
2022/06/18 08:54:31;;;;;;;9.43;2.13;;;;;;;;;;6277621;22;19996;-70
2022/06/18 08:57:13;;;;;;;6.93;2.80;;;;;;;;;;6277358;22;20033;-71
2022/06/18 08:59:57;;;;;;;7.50;2.00;;;;;;;;;;6277517;22;19994;-71
2022/06/18 09:02:30;;;;;;;8.63;2.33;;;;;;;;;;6277386;22;20035;-71
2022/06/18 09:04:56;;;;;;;6.35;2.00;;;;;;;;;;6277323;22;19996;-71
2022/06/18 09:07:43;;;;;;;11.27;2.42;;;;;;;;;;6277108;22;20080;-71
2022/06/18 09:10:17;;;;;;;12.63;2.83;;;;;;;;;;6277674;22;20011;-71
2022/06/18 09:12:48;;;;;;;8.45;2.33;;;;;;;;;;6277106;22;20007;-70
2022/06/18 09:15:13;;;;;;;16.00;2.90;;;;;;;;;;6276934;22;20004;-70
2022/06/18 09:17:41;;;;;;;8.65;2.03;;;;;;;;;;6249852;22;20380;-71
2022/06/18 09:20:06;;;;;;;8.93;1.88;;;;;;;;;;6277423;22;20003;-70
2022/06/18 09:22:34;;;;;;;7.32;2.20;;;;;;;;;;6277228;22;20004;-70
2022/06/18 09:25:02;;;;;;;10.75;2.70;;;;;;;;;;6277313;22;20010;-70
2022/06/18 09:27:38;;;;;;;7.43;1.90;;;;;;;;;;6276896;22;20034;-70
2022/06/18 09:30:13;;;;;;;11.38;2.30;;;;;;;;;;6276911;22;20087;-70
2022/06/18 09:32:44;;;;;;;10.05;2.67;;;;;;;;;;6277151;22;20009;-70
2022/06/18 09:35:22;;;;;;;10.70;2.28;;;;;;;;;;6277058;22;20000;-70
2022/06/18 09:38:09;;;;;;;8.52;1.85;;;;;;;;;;6276679;22;20000;-70
2022/06/18 09:40:36;;;;;;;12.00;2.38;;;;;;;;;;6276804;22;20012;-70
2022/06/18 09:43:07;;;;;;;12.15;2.33;;;;;;;;;;6276803;22;20004;-70
2022/06/18 09:45:34;;;;;;;10.23;2.00;;;;;;;;;;6276981;22;20357;-70
2022/06/18 09:48:00;;;;;;;11.75;2.40;;;;;;;;;;6276865;22;20018;-70
2022/06/18 09:50:35;;;;;;;11.02;2.05;;;;;;;;;;6277078;22;20000;-70
2022/06/18 09:53:04;;;;;;;9.00;1.98;;;;;;;;;;6276726;22;20007;-70
2022/06/18 09:55:47;;;;;;;15.65;2.35;;;;;;;;;;6276191;22;20344;-70
2022/06/18 09:58:23;;;;;;;11.00;2.10;;;;;;;;;;6276737;22;20389;-71
2022/06/18 10:00:50;;;;;;;12.50;2.35;;;;;;;;;;6276867;22;20004;-70
2022/06/18 10:08:50;;;;;;;13.65;2.10;;;;;;;;;;6276223;22;20074;-70
2022/06/18 10:11:17;;;;;;;13.40;1.90;;;;;;;;;;6276327;22;20004;-71
2022/06/18 10:13:45;;;;;;;9.45;1.60;;;;;;;;;;6274683;22;20003;-70
2022/06/18 10:16:30;;;;;;;5.78;1.83;;;;;;;;;;6276166;22;20000;-70
2022/06/18 10:18:55;;;;;;;10.00;2.25;;;;;;;;;;6254247;22;20043;-71
2022/06/18 10:21:34;;;;;;;12.13;2.40;;;;;;;;;;6276570;22;19992;-70
2022/06/18 10:24:09;;;;;;;11.75;2.40;;;;;;;;;;6276664;22;20327;-70
2022/06/18 10:26:41;;;;;;;10.02;2.42;;;;;;;;;;6276076;22;20470;-70
2022/06/18 10:29:07;;;;;;;10.43;2.25;;;;;;;;;;6276627;22;20111;-70
2022/06/18 10:31:37;;;;;;;11.35;2.03;;;;;;;;;;6276473;22;20027;-70
2022/06/18 10:34:03;;;;;;;9.43;2.60;;;;;;;;;;6276799;22;19995;-70
2022/06/18 10:36:33;;;;;;;8.55;2.80;;;;;;;;;;6276737;22;20323;-70
2022/06/18 10:39:07;;;;;;;9.88;2.25;;;;;;;;;;6276310;22;20015;-70
2022/06/18 10:41:56;;;;;;;9.27;2.30;;;;;;;;;;6276504;22;20007;-70
2022/06/18 10:44:35;;;;;;;13.63;2.85;;;;;;;;;;6260177;22;20012;-70
2022/06/18 10:47:06;;;;;;;10.77;2.50;;;;;;;;;;6276538;22;20007;-70
2022/06/18 10:49:32;;;;;;;10.27;2.67;;;;;;;;;;6276558;22;20030;-70
2022/06/18 10:51:57;;;;;;;10.57;2.20;;;;;;;;;;6271811;22;20081;-70
2022/06/18 10:54:31;;;;;;;8.98;2.15;;;;;;;;;;6275263;22;19999;-70
2022/06/18 10:56:59;;;;;;;13.82;2.38;;;;;;;;;;6276078;22;20008;-70
2022/06/18 10:59:29;;;;;;;9.48;2.40;;;;;;;;;;6275887;22;20408;-70
2022/06/18 11:01:54;;;;;;;12.48;2.17;;;;;;;;;;6249292;22;20442;-71
2022/06/18 11:04:24;;;;;;;9.27;2.15;;;;;;;;;;6276545;22;20027;-70
2022/06/18 11:06:52;;;;;;;15.48;2.90;;;;;;;;;;6276414;22;19999;-70
2022/06/18 11:09:28;;;;;;;13.63;2.97;;;;;;;;;;6276260;22;20317;-70
2022/06/18 11:11:55;;;;;;;11.18;2.42;;;;;;;;;;6276201;22;20002;-70
2022/06/18 11:14:20;;;;;;;10.68;2.45;;;;;;;;;;6276393;22;20043;-70
2022/06/18 11:16:47;;;;;;;12.30;2.90;;;;;;;;;;6276288;22;19992;-70
2022/06/18 11:19:17;;;;;;;10.93;3.22;;;;;;;;;;6276479;22;20007;-70
2022/06/18 11:21:43;;;;;;;12.40;2.95;;;;;;;;;;6276311;22;20447;-70
2022/06/18 11:24:11;;;;;;;10.45;3.03;;;;;;;;;;6276413;22;19992;-69
2022/06/18 11:26:41;;;;;;;12.23;3.42;;;;;;;;;;6276589;22;19988;-70
2022/06/18 11:29:19;;;;;;;13.75;3.40;;;;;;;;;;6275896;22;20015;-70
2022/06/18 11:31:46;;;;;;;12.38;3.47;;;;;;;;;;6277935;22;19992;-70
2022/06/18 11:34:25;;;;;;;16.02;3.15;;;;;;;;;;6278482;22;20086;-69
2022/06/18 11:36:53;;;;;;;17.35;3.95;;;;;;;;;;6278116;22;19994;-70
2022/06/18 11:39:34;;;;;;;14.85;3.42;;;;;;;;;;6278039;22;20443;-70
2022/06/18 11:42:02;;;;;;;17.00;4.40;;;;;;;;;;6278301;22;20026;-70
2022/06/18 11:44:48;;;;;;;14.13;4.22;;;;;;;;;;6277906;22;20466;-70
2022/06/18 11:47:16;;;;;;;18.60;4.32;;;;;;;;;;6277117;22;19996;-69
2022/06/18 11:50:00;;;;;;;13.52;4.50;;;;;;;;;;6277829;22;20047;-70
2022/06/18 11:52:32;;;;;;;13.48;4.70;;;;;;;;;;6277788;22;20408;-70
2022/06/18 11:55:09;;;;;;;19.23;4.95;;;;;;;;;;6278141;22;20053;-70
2022/06/18 11:58:03;;;;;;;16.98;4.97;;;;;;;;;;6278168;22;19992;-70
2022/06/18 12:00:28;;;;;;;;;;;;;;;;;;6251304;22;20008;-70
2022/06/18 12:03:01;;;;;;;13.55;4.80;;;;;;;;;;6278049;22;19910;-70
2022/06/18 12:05:31;;;;;;;17.73;5.32;;;;;;;;;;6278171;22;20042;-70
2022/06/18 12:07:57;;;;;;;17.50;5.25;;;;;;;;;;6277918;22;20007;-70
2022/06/18 12:10:37;;;;;;;15.00;5.18;;;;;;;;;;6277820;22;20082;-70
2022/06/18 12:13:06;;;;;;;17.33;5.60;;;;;;;;;;6278036;22;20011;-70
2022/06/18 12:15:41;;;;;;;14.00;5.03;;;;;;;;;;6277742;22;20003;-70
2022/06/18 12:18:17;;;;;;;15.13;4.50;;;;;;;;;;6278066;22;20008;-70
2022/06/18 12:20:42;;;;;;;17.05;4.85;;;;;;;;;;6277528;22;20340;-70
2022/06/18 12:23:17;;;;;;;14.45;5.00;;;;;;;;;;6277585;22;19996;-69
2022/06/18 12:25:45;;;;;;;14.60;4.85;;;;;;;;;;6277940;22;20077;-70
2022/06/18 12:28:18;;;;;;;13.00;4.72;;;;;;;;;;6277682;22;20011;-70
2022/06/18 12:30:55;;;;;;;13.10;4.33;;;;;;;;;;6277448;22;20078;-70
2022/06/18 12:33:27;;;;;;;12.05;4.40;;;;;;;;;;6277904;22;20003;-70
2022/06/18 12:35:58;;;;;;;10.57;4.13;;;;;;;;;;6250746;22;20030;-71
2022/06/18 12:38:24;;;;;;;8.82;3.80;;;;;;;;;;6277509;22;20065;-70
2022/06/18 12:40:56;;;;;;;10.82;4.40;;;;;;;;;;6277629;22;20000;-70
2022/06/18 12:43:24;;;;;;;16.10;5.88;;;;;;;;;;6278077;22;19996;-70
2022/06/18 12:46:03;;;;;;;15.07;5.07;;;;;;;;;;6277280;22;20488;-70
2022/06/18 12:48:35;;;;;;;14.35;4.53;;;;;;;;;;6277580;22;20014;-70
2022/06/18 12:51:19;;;;;;;8.90;3.65;;;;;;;;;;6277513;22;20412;-70
2022/06/18 12:53:44;;;;;;;;;;;;;;;;;;6278054;22;20064;-70
2022/06/18 12:56:09;;;;;;;12.32;4.38;;;;;;;;;;6277646;22;19932;-70
2022/06/18 12:58:39;;;;;;;14.40;4.90;;;;;;;;;;6277375;22;20000;-70
2022/06/18 13:01:28;;;;;;;11.52;4.35;;;;;;;;;;6277624;22;20307;-70
2022/06/18 13:04:03;;;;;;;12.73;5.00;;;;;;;;;;6260618;22;20035;-70
2022/06/18 13:06:28;;;;;;;14.35;5.38;;;;;;;;;;6277349;22;20015;-70
2022/06/18 13:08:56;;;;;;;14.68;5.95;;;;;;;;;;6277012;22;20012;-70
2022/06/18 13:11:32;;;;;;;16.30;4.88;;;;;;;;;;6277511;22;20003;-69
2022/06/18 13:14:02;;;;;;;12.27;4.63;;;;;;;;;;6277305;22;20007;-69
2022/06/18 13:16:31;;;;;;;10.60;4.50;;;;;;;;;;6277560;22;20087;-70
2022/06/18 13:19:13;;;;;;;14.15;5.25;;;;;;;;;;6277030;22;20446;-69
2022/06/18 13:21:39;;;;;;;11.27;4.90;;;;;;;;;;6277369;22;20004;-69
2022/06/18 13:29:52;;;;;;;12.82;4.45;;;;;;;;;;6276552;22;20054;-70
2022/06/18 13:32:23;;;;;;;10.38;4.25;;;;;;;;;;6277083;22;20008;-69
2022/06/18 13:34:54;;;;;;;13.05;4.40;;;;;;;;;;6276990;22;20088;-69
2022/06/18 13:37:23;;;;;;;11.55;4.10;;;;;;;;;;6276804;22;20424;-69
2022/06/18 13:39:51;;;;;;;11.98;4.75;;;;;;;;;;6277163;22;20012;-69
2022/06/18 13:42:28;;;;;;;14.95;5.03;;;;;;;;;;6249811;22;20007;-69
2022/06/18 13:45:12;;;;;;;13.25;4.75;;;;;;;;;;6250025;22;20011;-70
2022/06/18 13:47:58;;;;;;;13.82;4.85;;;;;;;;;;6276971;22;20004;-69
2022/06/18 13:50:23;;;;;;;10.88;5.40;;;;;;;;;;6277073;22;20075;-70
2022/06/18 13:52:49;;;;;;;12.68;5.05;;;;;;;;;;6276477;22;20035;-69
2022/06/18 13:55:16;;;;;;;11.75;4.38;;;;;;;;;;6277008;22;19999;-70
2022/06/18 13:57:44;;;;;;;12.00;4.45;;;;;;;;;;6277408;22;19991;-70
2022/06/18 14:00:18;;;;;;;11.65;3.88;;;;;;;;;;6277065;22;20000;-70
2022/06/18 14:02:48;;;;;;;14.43;4.32;;;;;;;;;;6276854;22;20092;-70
2022/06/18 14:05:16;;;;;;;9.68;3.72;;;;;;;;;;6276846;22;20004;-69
2022/06/18 14:07:44;;;;;;;9.77;3.55;;;;;;;;;;6276639;22;20324;-70
2022/06/18 14:10:14;;;;;;;9.35;3.60;;;;;;;;;;6276450;22;20431;-70
2022/06/18 14:12:41;;;;;;;11.57;4.00;;;;;;;;;;6276818;22;20000;-69
2022/06/18 14:15:22;;;;;;;10.65;3.83;;;;;;;;;;6276503;22;20439;-69
2022/06/18 14:17:52;;;;;;;13.07;4.47;;;;;;;;;;6276708;22;20010;-69
2022/06/18 14:20:31;;;;;;;9.65;3.88;;;;;;;;;;6276679;22;20011;-69
2022/06/18 14:22:58;;;;;;;20.33;4.28;;;;;;;;;;6276734;22;20014;-69
2022/06/18 14:25:23;;;;;;;13.15;4.00;;;;;;;;;;6276474;22;20437;-70
2022/06/18 14:27:49;;;;;;;13.20;3.90;;;;;;;;;;6276922;22;19996;-70
2022/06/18 14:30:20;;;;;;;10.95;4.07;;;;;;;;;;6276559;22;20050;-69
2022/06/18 14:32:49;;;;;;;13.40;4.60;;;;;;;;;;6276144;22;20078;-70
2022/06/18 14:35:24;;;;;;;13.45;4.85;;;;;;;;;;6276700;22;20380;-70
2022/06/18 14:37:50;;;;;;;14.30;4.72;;;;;;;;;;6276288;22;20008;-70
2022/06/18 14:40:19;;;;;;;10.98;3.60;;;;;;;;;;6276944;22;20009;-70
2022/06/18 14:42:47;;;;;;;14.45;3.83;;;;;;;;;;6276589;22;20000;-70
2022/06/18 14:45:30;;;;;;;13.75;4.38;;;;;;;;;;6276450;22;19996;-70
2022/06/18 14:48:14;;;;;;;14.63;4.30;;;;;;;;;;6277077;22;20031;-70
2022/06/18 14:50:39;;;;;;;;;;;;;;;;;;6276963;22;19999;-70
2022/06/18 14:53:23;;;;;;;11.55;3.72;;;;;;;;;;6276220;22;19986;-70
2022/06/18 14:55:48;;;;;;;;;;;;;;;;;;6276868;22;19996;-70